Terminal Aerodrome Forecast
Issued by NWS Tuscon, AZ

Current Version | Previous Version | Text Only | Print | Product List | Glossary On
Versions: 1 2 3 4 5 6 7 8 9 10 11 12 13 14
000
FTUS45 KTWC 300900 AAA
TAFDUG
TAF AMD
KDUG 300952Z 3010/3106 11013KT P6SM -SHRA SCT025 OVC050
      TEMPO 3010/3014 4SM -SHRA BKN025 OVC035
     FM301500 11010KT P6SM -SHRA SCT020 OVC035
     FM310200 10008KT P6SM -SHRA SCT015 OVC025=

USA.gov is the U.S. government's official web portal to all federal, state and local government web resources and services.